DNO455 LGMK-LGAV
Flight info
| Callsign | DNO455 |
|---|---|
| Flight time | 0h 37m |
| Altitude | 8000 |
| Route | VARIX |
| Aircraft | C208/L-SDFGR/C |
Departure
| Time | 2026-05-04 13:18 |
|---|---|
| Airport | Mykonos Island National Airport (LGMK) |
Arrival
| Time | 2026-05-04 13:56 |
|---|---|
| Airport | Athens Eleftherios Venizelos International Airport (LGAV) |
| Time | Latitude | Longitude | Altitude | Speed | Heading |
|---|---|---|---|---|---|
| 2026-05-04 12:54 | 37.43578 | 25.34606 | 406 ft | 0 kts | 251° |
| 2026-05-04 13:11 | 37.43583 | 25.34601 | 405 ft | 4 kts | 9° |
| 2026-05-04 13:11 | 37.43589 | 25.34618 | 406 ft | 6 kts | 74° |
| 2026-05-04 13:11 | 37.43559 | 25.34687 | 406 ft | 12 kts | 158° |
| 2026-05-04 13:11 | 37.43470 | 25.34725 | 406 ft | 13 kts | 162° |
| 2026-05-04 13:12 | 37.43427 | 25.34753 | 406 ft | 4 kts | 125° |
| 2026-05-04 13:12 | 37.43426 | 25.34754 | 406 ft | 0 kts | 123° |
| 2026-05-04 13:15 | 37.43418 | 25.34773 | 407 ft | 9 kts | 117° |
| 2026-05-04 13:16 | 37.43374 | 25.34877 | 410 ft | 19 kts | 137° |
| 2026-05-04 13:16 | 37.43232 | 25.34946 | 411 ft | 26 kts | 161° |
| 2026-05-04 13:16 | 37.43037 | 25.35032 | 412 ft | 32 kts | 161° |
| 2026-05-04 13:16 | 37.42856 | 25.35113 | 410 ft | 19 kts | 161° |
| 2026-05-04 13:17 | 37.42771 | 25.35180 | 409 ft | 13 kts | 134° |
| 2026-05-04 13:17 | 37.42735 | 25.35163 | 408 ft | 4 kts | 312° |
| 2026-05-04 13:17 | 37.42850 | 25.35117 | 410 ft | 39 kts | 341° |
| 2026-05-04 13:17 | 37.43237 | 25.34951 | 471 ft | 69 kts | 344° |
| 2026-05-04 13:18 | 37.43695 | 25.34769 | 690 ft | 69 kts | 341° |
| 2026-05-04 13:18 | 37.44150 | 25.34569 | 946 ft | 69 kts | 340° |
| 2026-05-04 13:18 | 37.44627 | 25.34355 | 1130 ft | 77 kts | 341° |
| 2026-05-04 13:18 | 37.45045 | 25.33927 | 1311 ft | 85 kts | 306° |
| 2026-05-04 13:19 | 37.45301 | 25.33232 | 1478 ft | 92 kts | 298° |
| 2026-05-04 13:19 | 37.45655 | 25.32498 | 1673 ft | 102 kts | 319° |
| 2026-05-04 13:19 | 37.46237 | 25.32003 | 1922 ft | 104 kts | 334° |
| 2026-05-04 13:19 | 37.46875 | 25.31516 | 2124 ft | 112 kts | 318° |
| 2026-05-04 13:20 | 37.47183 | 25.30594 | 2321 ft | 124 kts | 275° |
| 2026-05-04 13:20 | 37.46899 | 25.29528 | 2514 ft | 134 kts | 245° |
| 2026-05-04 13:20 | 37.46447 | 25.28485 | 2721 ft | 137 kts | 248° |
| 2026-05-04 13:20 | 37.46013 | 25.27408 | 2894 ft | 139 kts | 246° |
| 2026-05-04 13:21 | 37.45549 | 25.26336 | 3068 ft | 139 kts | 246° |
| 2026-05-04 13:21 | 37.45111 | 25.25258 | 3241 ft | 137 kts | 248° |
| 2026-05-04 13:21 | 37.44688 | 25.24188 | 3414 ft | 136 kts | 248° |
| 2026-05-04 13:21 | 37.44268 | 25.23126 | 3579 ft | 136 kts | 248° |
| 2026-05-04 13:22 | 37.43847 | 25.22068 | 3767 ft | 135 kts | 248° |
| 2026-05-04 13:22 | 37.43426 | 25.21009 | 3941 ft | 135 kts | 248° |
| 2026-05-04 13:22 | 37.43004 | 25.19946 | 4117 ft | 137 kts | 248° |
| 2026-05-04 13:22 | 37.42578 | 25.18879 | 4293 ft | 136 kts | 248° |
| 2026-05-04 13:23 | 37.42152 | 25.17814 | 4462 ft | 136 kts | 248° |
| 2026-05-04 13:23 | 37.41728 | 25.16751 | 4633 ft | 136 kts | 248° |
| 2026-05-04 13:23 | 37.41302 | 25.15688 | 4811 ft | 136 kts | 247° |
| 2026-05-04 13:23 | 37.40875 | 25.14617 | 4984 ft | 138 kts | 248° |
| 2026-05-04 13:24 | 37.40444 | 25.13533 | 5161 ft | 139 kts | 247° |
| 2026-05-04 13:24 | 37.40008 | 25.12439 | 5346 ft | 141 kts | 247° |
| 2026-05-04 13:24 | 37.39570 | 25.11346 | 5517 ft | 143 kts | 247° |
| 2026-05-04 13:25 | 37.38665 | 25.09089 | 5873 ft | 144 kts | 247° |
| 2026-05-04 13:25 | 37.38216 | 25.07967 | 6048 ft | 143 kts | 247° |
| 2026-05-04 13:25 | 37.37768 | 25.06849 | 6225 ft | 143 kts | 247° |
| 2026-05-04 13:25 | 37.37318 | 25.05728 | 6399 ft | 143 kts | 247° |
| 2026-05-04 13:26 | 37.36869 | 25.04604 | 6573 ft | 144 kts | 247° |
| 2026-05-04 13:26 | 37.36489 | 25.03448 | 6741 ft | 141 kts | 264° |
| 2026-05-04 13:26 | 37.36646 | 25.02274 | 6917 ft | 136 kts | 294° |
| 2026-05-04 13:26 | 37.36982 | 25.01161 | 7089 ft | 137 kts | 292° |
| 2026-05-04 13:27 | 37.37290 | 25.00029 | 7259 ft | 137 kts | 291° |
| 2026-05-04 13:27 | 37.37596 | 24.98893 | 7433 ft | 137 kts | 291° |
| 2026-05-04 13:27 | 37.37902 | 24.97754 | 7605 ft | 138 kts | 291° |
| 2026-05-04 13:27 | 37.38206 | 24.96616 | 7775 ft | 137 kts | 291° |
| 2026-05-04 13:28 | 37.38509 | 24.95483 | 7956 ft | 136 kts | 291° |
| 2026-05-04 13:28 | 37.38815 | 24.94334 | 8026 ft | 143 kts | 291° |
| 2026-05-04 13:28 | 37.39138 | 24.93110 | 8035 ft | 151 kts | 291° |
| 2026-05-04 13:28 | 37.39474 | 24.91837 | 8036 ft | 155 kts | 291° |
| 2026-05-04 13:29 | 37.39817 | 24.90537 | 8038 ft | 158 kts | 291° |
| 2026-05-04 13:29 | 37.40165 | 24.89219 | 8035 ft | 160 kts | 291° |
| 2026-05-04 13:29 | 37.40519 | 24.87885 | 8038 ft | 161 kts | 291° |
| 2026-05-04 13:29 | 37.40873 | 24.86541 | 8034 ft | 162 kts | 290° |
| 2026-05-04 13:30 | 37.41231 | 24.85186 | 8035 ft | 164 kts | 291° |
| 2026-05-04 13:30 | 37.41585 | 24.83843 | 8034 ft | 160 kts | 291° |
| 2026-05-04 13:30 | 37.41940 | 24.82509 | 8033 ft | 161 kts | 291° |
| 2026-05-04 13:30 | 37.42292 | 24.81173 | 8034 ft | 162 kts | 291° |
| 2026-05-04 13:31 | 37.42650 | 24.79824 | 8032 ft | 163 kts | 291° |
| 2026-05-04 13:31 | 37.43010 | 24.78465 | 8037 ft | 164 kts | 291° |
| 2026-05-04 13:31 | 37.43372 | 24.77092 | 8036 ft | 166 kts | 291° |
| 2026-05-04 13:31 | 37.43735 | 24.75713 | 8036 ft | 166 kts | 290° |
| 2026-05-04 13:32 | 37.44100 | 24.74331 | 8037 ft | 166 kts | 291° |
| 2026-05-04 13:32 | 37.44458 | 24.72976 | 8036 ft | 166 kts | 290° |
| 2026-05-04 13:32 | 37.44821 | 24.71602 | 8038 ft | 165 kts | 290° |
| 2026-05-04 13:32 | 37.45183 | 24.70218 | 8006 ft | 168 kts | 290° |
| 2026-05-04 13:33 | 37.45549 | 24.68825 | 8008 ft | 167 kts | 290° |
| 2026-05-04 13:33 | 37.45914 | 24.67439 | 8008 ft | 167 kts | 290° |
| 2026-05-04 13:33 | 37.46279 | 24.66051 | 8008 ft | 167 kts | 290° |
| 2026-05-04 13:33 | 37.46642 | 24.64668 | 8005 ft | 167 kts | 290° |
| 2026-05-04 13:34 | 37.47005 | 24.63275 | 8005 ft | 167 kts | 290° |
| 2026-05-04 13:34 | 37.47369 | 24.61891 | 8007 ft | 166 kts | 290° |
| 2026-05-04 13:34 | 37.47729 | 24.60517 | 8007 ft | 165 kts | 290° |
| 2026-05-04 13:34 | 37.48089 | 24.59145 | 8002 ft | 165 kts | 290° |
| 2026-05-04 13:35 | 37.48448 | 24.57776 | 8002 ft | 165 kts | 290° |
| 2026-05-04 13:35 | 37.49159 | 24.55054 | 8004 ft | 163 kts | 290° |
| 2026-05-04 13:35 | 37.49514 | 24.53701 | 7998 ft | 163 kts | 290° |
| 2026-05-04 13:36 | 37.49869 | 24.52341 | 7996 ft | 164 kts | 290° |
| 2026-05-04 13:36 | 37.50223 | 24.50982 | 7995 ft | 163 kts | 290° |
| 2026-05-04 13:36 | 37.50578 | 24.49620 | 7996 ft | 165 kts | 290° |
| 2026-05-04 13:36 | 37.50931 | 24.48253 | 7995 ft | 164 kts | 290° |
| 2026-05-04 13:37 | 37.51301 | 24.46887 | 7996 ft | 166 kts | 293° |
| 2026-05-04 13:37 | 37.51772 | 24.45558 | 7997 ft | 166 kts | 297° |
| 2026-05-04 13:37 | 37.52243 | 24.44237 | 7997 ft | 165 kts | 296° |
| 2026-05-04 13:37 | 37.52551 | 24.43367 | 7997 ft | 165 kts | 296° |
| 2026-05-04 13:38 | 37.53188 | 24.41617 | 7994 ft | 164 kts | 297° |
| 2026-05-04 13:38 | 37.53679 | 24.40304 | 7995 ft | 166 kts | 297° |
| 2026-05-04 13:38 | 37.54171 | 24.38992 | 7995 ft | 165 kts | 297° |
| 2026-05-04 13:38 | 37.54658 | 24.37681 | 7995 ft | 164 kts | 297° |
| 2026-05-04 13:39 | 37.55146 | 24.36381 | 7996 ft | 164 kts | 297° |
| 2026-05-04 13:39 | 37.55631 | 24.35086 | 7995 ft | 164 kts | 297° |
| 2026-05-04 13:39 | 37.56114 | 24.33791 | 7995 ft | 163 kts | 297° |
| 2026-05-04 13:39 | 37.56599 | 24.32499 | 7993 ft | 164 kts | 297° |
| 2026-05-04 13:40 | 37.57083 | 24.31223 | 7992 ft | 163 kts | 297° |
| 2026-05-04 13:40 | 37.57571 | 24.29926 | 7992 ft | 164 kts | 297° |
| 2026-05-04 13:40 | 37.58058 | 24.28627 | 7994 ft | 165 kts | 297° |
| 2026-05-04 13:40 | 37.58549 | 24.27321 | 7992 ft | 165 kts | 297° |
| 2026-05-04 13:41 | 37.59040 | 24.26009 | 7995 ft | 166 kts | 297° |
| 2026-05-04 13:41 | 37.59532 | 24.24705 | 7996 ft | 164 kts | 297° |
| 2026-05-04 13:41 | 37.60021 | 24.23404 | 7959 ft | 165 kts | 297° |
| 2026-05-04 13:42 | 37.60999 | 24.20791 | 7722 ft | 165 kts | 297° |
| 2026-05-04 13:42 | 37.61485 | 24.19484 | 7599 ft | 165 kts | 297° |
| 2026-05-04 13:42 | 37.61973 | 24.18176 | 7473 ft | 164 kts | 297° |
| 2026-05-04 13:42 | 37.62458 | 24.16875 | 7346 ft | 164 kts | 297° |
| 2026-05-04 13:43 | 37.62947 | 24.15570 | 7223 ft | 165 kts | 297° |
| 2026-05-04 13:43 | 37.63436 | 24.14264 | 7072 ft | 164 kts | 296° |
| 2026-05-04 13:43 | 37.63908 | 24.12993 | 6885 ft | 156 kts | 296° |
| 2026-05-04 13:43 | 37.64353 | 24.11785 | 6673 ft | 149 kts | 296° |
| 2026-05-04 13:44 | 37.64781 | 24.10619 | 6465 ft | 145 kts | 297° |
| 2026-05-04 13:44 | 37.65164 | 24.09456 | 6257 ft | 144 kts | 284° |
| 2026-05-04 13:44 | 37.65241 | 24.08194 | 6060 ft | 144 kts | 277° |
| 2026-05-04 13:44 | 37.65285 | 24.06957 | 5886 ft | 143 kts | 274° |
| 2026-05-04 13:45 | 37.65298 | 24.05709 | 5707 ft | 142 kts | 274° |
| 2026-05-04 13:45 | 37.65310 | 24.04462 | 5531 ft | 143 kts | 274° |
| 2026-05-04 13:45 | 37.65325 | 24.03194 | 5361 ft | 146 kts | 274° |
| 2026-05-04 13:45 | 37.65343 | 24.01906 | 5192 ft | 148 kts | 274° |
| 2026-05-04 13:46 | 37.65362 | 24.00607 | 5021 ft | 148 kts | 274° |
| 2026-05-04 13:46 | 37.65383 | 23.99281 | 4853 ft | 155 kts | 274° |
| 2026-05-04 13:46 | 37.65400 | 23.98371 | 4742 ft | 158 kts | 274° |
| 2026-05-04 13:46 | 37.65578 | 23.97002 | 4569 ft | 159 kts | 287° |
| 2026-05-04 13:47 | 37.65970 | 23.95694 | 4394 ft | 160 kts | 298° |
| 2026-05-04 13:47 | 37.66582 | 23.94528 | 4221 ft | 160 kts | 309° |
| 2026-05-04 13:47 | 37.67353 | 23.93531 | 4045 ft | 159 kts | 321° |
| 2026-05-04 13:47 | 37.68263 | 23.92752 | 3867 ft | 154 kts | 328° |
| 2026-05-04 13:48 | 37.69122 | 23.92064 | 3677 ft | 140 kts | 327° |
| 2026-05-04 13:48 | 37.69923 | 23.91422 | 3487 ft | 133 kts | 327° |
| 2026-05-04 13:48 | 37.70697 | 23.90803 | 3301 ft | 130 kts | 328° |
| 2026-05-04 13:48 | 37.71459 | 23.90194 | 3121 ft | 129 kts | 328° |
| 2026-05-04 13:49 | 37.72213 | 23.89592 | 3002 ft | 124 kts | 328° |
| 2026-05-04 13:49 | 37.72913 | 23.89029 | 2990 ft | 117 kts | 328° |
| 2026-05-04 13:49 | 37.73660 | 23.88503 | 2999 ft | 130 kts | 336° |
| 2026-05-04 13:49 | 37.74532 | 23.88091 | 3012 ft | 137 kts | 339° |
| 2026-05-04 13:50 | 37.75441 | 23.87661 | 3011 ft | 141 kts | 339° |
| 2026-05-04 13:50 | 37.76373 | 23.87220 | 3011 ft | 144 kts | 339° |
| 2026-05-04 13:50 | 37.77317 | 23.86773 | 3010 ft | 145 kts | 339° |
| 2026-05-04 13:50 | 37.78267 | 23.86324 | 3010 ft | 146 kts | 339° |
| 2026-05-04 13:51 | 37.79220 | 23.85870 | 3008 ft | 147 kts | 339° |
| 2026-05-04 13:51 | 37.80202 | 23.85617 | 2973 ft | 144 kts | 359° |
| 2026-05-04 13:51 | 37.81199 | 23.85750 | 2871 ft | 147 kts | 13° |
| 2026-05-04 13:51 | 37.82174 | 23.86163 | 2767 ft | 149 kts | 16° |
| 2026-05-04 13:52 | 37.84171 | 23.87022 | 2564 ft | 145 kts | 19° |
| 2026-05-04 13:52 | 37.85058 | 23.87589 | 2460 ft | 147 kts | 25° |
| 2026-05-04 13:52 | 37.85940 | 23.88261 | 2327 ft | 148 kts | 30° |
| 2026-05-04 13:53 | 37.86805 | 23.89055 | 2063 ft | 154 kts | 36° |
| 2026-05-04 13:53 | 37.87660 | 23.89851 | 1704 ft | 152 kts | 36° |
| 2026-05-04 13:53 | 37.88486 | 23.90610 | 1396 ft | 143 kts | 37° |
| 2026-05-04 13:54 | 37.89987 | 23.92062 | 1065 ft | 113 kts | 37° |
| 2026-05-04 13:54 | 37.90558 | 23.92614 | 897 ft | 98 kts | 38° |
| 2026-05-04 13:54 | 37.91626 | 23.93642 | 593 ft | 96 kts | 39° |
| 2026-05-04 13:55 | 37.92158 | 23.94138 | 475 ft | 95 kts | 37° |
| 2026-05-04 13:55 | 37.93182 | 23.95116 | 295 ft | 73 kts | 37° |
| 2026-05-04 13:55 | 37.93534 | 23.95449 | 282 ft | 54 kts | 37° |
| 2026-05-04 13:56 | 37.93783 | 23.95664 | 278 ft | 36 kts | 25° |
| 2026-05-04 13:56 | 37.94016 | 23.95732 | 289 ft | 34 kts | 5° |
| 2026-05-04 13:56 | 37.94395 | 23.95985 | 299 ft | 27 kts | 37° |
| 2026-05-04 13:57 | 37.94534 | 23.96122 | 297 ft | 22 kts | 37° |
| 2026-05-04 13:57 | 37.94658 | 23.96097 | 299 ft | 19 kts | 29° |
| 2026-05-04 13:58 | 37.94966 | 23.96230 | 300 ft | 11 kts | 305° |
| 2026-05-04 13:58 | 37.95018 | 23.96172 | 301 ft | 1 kts | 39° |